Darstellungsparameter: Aktuell verwendete Einstellungen:
Skalierung der Graphiken ... ?
xyx+y,   Skalierungsfaktor:      Skalierung: Modus: x, Faktor: 1
Darstellungszeitraum ... ?
Vom - - bis: - -   Zeitraum: 30.07.2010 - 29.08.2010
Min/Max/Avg-Anzeige ... ?
Zeige MMA aktuell
Zeige MMA Monat
Zeige MMA alles
Zeige --A aktuell
Zeige --A Monat
Zeige --A alles
Keine MMA-Anzeige
MMA:
Average (ber die Originaldaten)
MMA-Basis: 30.07.2010 - 29.08.2010
Quicknavigation für Darstellung... ?
Tage:      1T, 2T, 3T, 5T -1T -2T -3T -5T +1T +2T +3T +5T
Wochen: 1W, 2W, 3W -1W -2W -3W +1W +2W +3W
Monate: 1M, 3M, 6M -1M -3M -6M +1M +3M +6M
Jahre:    1J, 3J, 5J, 10J -1J -3J -5J -10J +1J +3J +5J +10J
Nutze für die Darstellung ... ?
Originaldaten oder ...
Mittelwerte Minima Maxima auf...
Stundenbasis Tagesbasis Wochenbasis
Monatsbasis Jahresbasis      Datenbasis: Mittelwerte auf Stundenbasis
Darstellen als:
Statistik (Auto) Statistik J:M      Darstellung:
Zur Graphik,    zurück zur Übersicht aller Sensoren.
 
Tabellarische Datenbersicht: ?
 
Sensor: Nr:Datum:Temp:Abs-Feuchte:Windchill:Wind:
Aussen-T/F 1 30-07-2010 00:00:00 15.2 C 9.84 g/m*3 15.2 C 0 km/h
2 30-07-2010 01:00:00 15.2 C 9.86 g/m*3 15.2 C 0 km/h
3 30-07-2010 02:00:00 14.74 C 9.89 g/m*3 14.74 C 0 km/h
4 30-07-2010 03:00:00 14.6 C 10.24 g/m*3 14.6 C 0 km/h
5 30-07-2010 04:00:00 14.42 C 10.4 g/m*3 14.42 C 0 km/h
6 30-07-2010 05:00:00 14.7 C 10.6 g/m*3 14.7 C 0 km/h
7 30-07-2010 06:00:00 14.76 C 10.51 g/m*3 14.76 C 0 km/h
8 30-07-2010 07:00:00 15.18 C 10.53 g/m*3 15.18 C 0 km/h
9 30-07-2010 08:00:00 16.28 C 10.56 g/m*3 16.28 C 0 km/h
10 30-07-2010 09:00:00 17.26 C 9.79 g/m*3 17.26 C 0 km/h
11 30-07-2010 10:00:00 19 C 9 g/m*3 19 C 0 km/h
12 30-07-2010 11:00:00 22 C 8.35 g/m*3 22 C 0 km/h
13 30-07-2010 12:00:00 21.54 C 8.32 g/m*3 21.54 C 0 km/h
14 30-07-2010 13:00:00 24 C 7.48 g/m*3 24 C 0 km/h
15 30-07-2010 14:00:00 24.48 C 7.6 g/m*3 24.48 C 0 km/h
16 30-07-2010 15:00:00 25.14 C 7.15 g/m*3 25.14 C 0 km/h
17 30-07-2010 16:00:00 25.94 C 6.6 g/m*3 25.94 C 0 km/h
18 30-07-2010 17:00:00 26.82 C 6.42 g/m*3 26.82 C 0 km/h
19 30-07-2010 18:00:00 26.8 C 6.06 g/m*3 26.8 C 0 km/h
20 30-07-2010 19:00:00 26.02 C 6.97 g/m*3 26.02 C 0 km/h
21 30-07-2010 20:00:00 22.54 C 7.53 g/m*3 22.54 C 0 km/h
22 30-07-2010 21:00:00 19.84 C 7.7 g/m*3 19.84 C 0 km/h
23 30-07-2010 22:00:00 18.5 C 7.47 g/m*3 18.5 C 0 km/h
24 30-07-2010 23:00:00 17 C 8.54 g/m*3 17 C 0 km/h
25 31-07-2010 00:00:00 15.92 C 8.73 g/m*3 15.92 C 0 km/h
Sensor: Nr:Datum:Temp:Abs-Feuchte:Windchill:Wind:
Aussen-T/F 26 31-07-2010 01:00:00 14.84 C 8.79 g/m*3 14.84 C 0 km/h
27 31-07-2010 02:00:00 14.04 C 8.66 g/m*3 14.04 C 0 km/h
28 31-07-2010 03:00:00 13.34 C 8.64 g/m*3 13.34 C 0 km/h
29 31-07-2010 04:00:00 12.7 C 8.66 g/m*3 12.7 C 0 km/h
30 31-07-2010 05:00:00 12.26 C 8.67 g/m*3 12.26 C 0 km/h
31 31-07-2010 06:00:00 12.02 C 8.77 g/m*3 12.02 C 0 km/h
32 31-07-2010 07:00:00 12.6 C 9.12 g/m*3 12.6 C 0 km/h
33 31-07-2010 08:00:00 13.84 C 9.27 g/m*3 13.84 C 0 km/h
34 31-07-2010 09:00:00 16.36 C 9.55 g/m*3 16.36 C 0 km/h
35 31-07-2010 10:00:00 22 C 9.04 g/m*3 22 C 0 km/h
36 31-07-2010 11:00:00 23.48 C 7.44 g/m*3 23.48 C 0 km/h
37 31-07-2010 12:00:00 24.12 C 6.83 g/m*3 24.12 C 0 km/h
38 31-07-2010 13:00:00 25.56 C 6.56 g/m*3 25.56 C 0 km/h
39 31-07-2010 14:00:00 26.84 C 6.63 g/m*3 26.84 C 0 km/h
40 31-07-2010 15:00:00 27.88 C 6.32 g/m*3 27.88 C 0 km/h
41 31-07-2010 16:00:00 29.44 C 6 g/m*3 29.44 C 0 km/h
42 31-07-2010 17:00:00 29.84 C 6.01 g/m*3 29.84 C 0 km/h
43 31-07-2010 18:00:00 29.86 C 6.08 g/m*3 29.86 C 0 km/h
44 31-07-2010 19:00:00 27.88 C 7.24 g/m*3 27.88 C 0 km/h
45 31-07-2010 20:00:00 24.6 C 8.19 g/m*3 24.6 C 0 km/h
46 31-07-2010 21:00:00 23.04 C 8.41 g/m*3 23.04 C 0 km/h
47 31-07-2010 22:00:00 22.02 C 9.17 g/m*3 22.02 C 0 km/h
48 31-07-2010 23:00:00 20.5 C 11.74 g/m*3 20.5 C 0 km/h
49 01-08-2010 00:00:00 19.4 C 12.38 g/m*3 19.4 C 0 km/h
50 01-08-2010 01:00:00 18.26 C 13.1 g/m*3 18.26 C 0 km/h
Sensor: Nr:Datum:Temp:Abs-Feuchte:Windchill:Wind:
Aussen-T/F 51 01-08-2010 02:00:00 18.1 C 13.38 g/m*3 18.1 C 0 km/h
52 01-08-2010 03:00:00 17.98 C 13.16 g/m*3 17.98 C 0 km/h
53 01-08-2010 04:00:00 17.84 C 12.93 g/m*3 17.84 C 0 km/h
54 01-08-2010 05:00:00 17.72 C 12.78 g/m*3 17.72 C 0 km/h
55 01-08-2010 06:00:00 17.42 C 13.15 g/m*3 17.42 C 0 km/h
56 01-08-2010 07:00:00 18.34 C 13.73 g/m*3 18.34 C 0 km/h
57 01-08-2010 08:00:00 19.68 C 13.77 g/m*3 19.68 C 0 km/h
58 01-08-2010 09:00:00 20.86 C 13.56 g/m*3 20.86 C 0 km/h
59 01-08-2010 10:00:00 21.94 C 13.58 g/m*3 21.94 C 0 km/h
60 01-08-2010 11:00:00 24.06 C 12.92 g/m*3 24.06 C 0 km/h
61 01-08-2010 12:00:00 25.46 C 10.72 g/m*3 25.46 C 0 km/h
62 01-08-2010 13:00:00 27.84 C 9.43 g/m*3 27.84 C 0 km/h
63 01-08-2010 14:00:00 29.02 C 7.94 g/m*3 29.02 C 0 km/h
64 01-08-2010 15:00:00 30.04 C 7.23 g/m*3 30.04 C 0 km/h
65 01-08-2010 16:00:00 30.66 C 7.1 g/m*3 30.66 C 0 km/h
66 01-08-2010 17:00:00 30.1 C 7.44 g/m*3 30.1 C 0 km/h
67 01-08-2010 18:00:00 28.36 C 8.38 g/m*3 28.36 C 0 km/h
68 01-08-2010 19:00:00 25.88 C 9.48 g/m*3 25.88 C 0 km/h
69 01-08-2010 20:00:00 24.64 C 10.24 g/m*3 24.64 C 0 km/h
70 01-08-2010 21:00:00 23.16 C 9.83 g/m*3 23.16 C 0 km/h
71 01-08-2010 22:00:00 21.96 C 9.53 g/m*3 21.96 C 0 km/h
72 01-08-2010 23:00:00 21.08 C 9.97 g/m*3 21.08 C 0 km/h
73 02-08-2010 00:00:00 19.74 C 10.01 g/m*3 19.74 C 0 km/h
74 02-08-2010 01:00:00 19.24 C 10.28 g/m*3 19.24 C 0 km/h
75 02-08-2010 02:00:00 18.64 C 10.53 g/m*3 18.64 C 0 km/h
Sensor: Nr:Datum:Temp:Abs-Feuchte:Windchill:Wind:
Aussen-T/F 76 02-08-2010 03:00:00 17.94 C 10.62 g/m*3 17.94 C 0 km/h
77 02-08-2010 04:00:00 17.1 C 10.86 g/m*3 17.1 C 0 km/h
78 02-08-2010 05:00:00 16.32 C 10.64 g/m*3 16.32 C 0 km/h
79 02-08-2010 06:00:00 16.48 C 10.91 g/m*3 16.48 C 0 km/h
80 02-08-2010 07:00:00 16.38 C 10.96 g/m*3 16.38 C 0 km/h
81 02-08-2010 08:00:00 16.86 C 11.16 g/m*3 16.86 C 0 km/h
82 02-08-2010 09:00:00 18.68 C 11.16 g/m*3 18.68 C 0 km/h
83 02-08-2010 10:00:00 20.88 C 10.59 g/m*3 20.88 C 0 km/h
84 02-08-2010 11:00:00 23.84 C 9.31 g/m*3 23.84 C 0 km/h
85 02-08-2010 12:00:00 25.54 C 8.16 g/m*3 25.54 C 0 km/h
86 02-08-2010 13:00:00 23.28 C 8.65 g/m*3 23.28 C 0 km/h
87 02-08-2010 14:00:00 20.48 C 11.23 g/m*3 20.48 C 0 km/h
88 02-08-2010 15:00:00 21.32 C 11.23 g/m*3 21.32 C 0 km/h
89 02-08-2010 16:00:00 23.06 C 10.93 g/m*3 23.06 C 0 km/h
90 02-08-2010 17:00:00 24.2 C 9.77 g/m*3 24.2 C 0 km/h
91 02-08-2010 18:00:00 21.28 C 11.17 g/m*3 21.28 C 0 km/h
92 02-08-2010 19:00:00 20.02 C 12.35 g/m*3 20.02 C 0 km/h
93 02-08-2010 20:00:00 18.6 C 13.5 g/m*3 18.6 C 0 km/h
94 02-08-2010 21:00:00 17.58 C 13.45 g/m*3 17.58 C 0 km/h
95 02-08-2010 22:00:00 17.12 C 13.32 g/m*3 17.12 C 0 km/h
96 02-08-2010 23:00:00 16.04 C 12.43 g/m*3 16.04 C 0 km/h
97 03-08-2010 00:00:00 15.94 C 12.08 g/m*3 15.94 C 0 km/h
98 03-08-2010 01:00:00 15.96 C 12.02 g/m*3 15.96 C 0 km/h
99 03-08-2010 02:00:00 15.46 C 11.76 g/m*3 15.46 C 0 km/h
100 03-08-2010 03:00:00 15.26 C 12.06 g/m*3 15.26 C 0 km/h
Sensor: Nr:Datum:Temp:Abs-Feuchte:Windchill:Wind:
Aussen-T/F 101 03-08-2010 04:00:00 15.02 C 12.04 g/m*3 15.02 C 0 km/h
102 03-08-2010 05:00:00 14.96 C 12.08 g/m*3 14.96 C 0 km/h
103 03-08-2010 06:00:00 14.62 C 11.9 g/m*3 14.62 C 0 km/h
104 03-08-2010 07:00:00 15.06 C 12.23 g/m*3 15.06 C 0 km/h
105 03-08-2010 08:00:00 15.96 C 12.37 g/m*3 15.96 C 0 km/h
106 03-08-2010 09:00:00 16.78 C 11.71 g/m*3 16.78 C 0 km/h
107 03-08-2010 10:00:00 17.64 C 11.03 g/m*3 17.64 C 0 km/h
108 03-08-2010 11:00:00 18.94 C 9.58 g/m*3 18.94 C 0 km/h
109 03-08-2010 12:00:00 21.22 C 7.94 g/m*3 21.22 C 0 km/h
110 03-08-2010 13:00:00 21.34 C 7.66 g/m*3 21.34 C 0 km/h
111 03-08-2010 14:00:00 21.88 C 8.29 g/m*3 21.88 C 0 km/h
112 03-08-2010 15:00:00 24.2 C 6.29 g/m*3 24.2 C 0 km/h
113 03-08-2010 16:00:00 25.38 C 5.31 g/m*3 25.38 C 0 km/h
114 03-08-2010 17:00:00 25.84 C 4.97 g/m*3 25.84 C 0 km/h
115 03-08-2010 18:00:00 26.12 C 5.15 g/m*3 26.12 C 0 km/h
116 03-08-2010 19:00:00 23.6 C 5.91 g/m*3 23.6 C 0 km/h
117 03-08-2010 20:00:00 21.72 C 7.22 g/m*3 21.72 C 0 km/h
118 03-08-2010 21:00:00 18.32 C 7.61 g/m*3 18.32 C 0 km/h
119 03-08-2010 22:00:00 17.26 C 8.29 g/m*3 17.26 C 0 km/h
120 03-08-2010 23:00:00 16.12 C 8.51 g/m*3 16.12 C 0 km/h
121 04-08-2010 00:00:00 15.44 C 8.98 g/m*3 15.44 C 0 km/h
122 04-08-2010 01:00:00 15.68 C 9.22 g/m*3 15.68 C 0 km/h
123 04-08-2010 02:00:00 15.42 C 9.71 g/m*3 15.42 C 0 km/h
124 04-08-2010 03:00:00 15.36 C 9.7 g/m*3 15.36 C 0 km/h
125 04-08-2010 04:00:00 15.2 C 9.53 g/m*3 15.2 C 0 km/h
Sensor: Nr:Datum:Temp:Abs-Feuchte:Windchill:Wind:
Aussen-T/F 126 04-08-2010 05:00:00 15.14 C 9.57 g/m*3 15.14 C 0 km/h
127 04-08-2010 06:00:00 15.28 C 9.78 g/m*3 15.28 C 0 km/h
128 04-08-2010 07:00:00 15.88 C 10.01 g/m*3 15.88 C 0 km/h
129 04-08-2010 08:00:00 16.86 C 9.96 g/m*3 16.86 C 0 km/h
130 04-08-2010 09:00:00 18.8 C 9.86 g/m*3 18.8 C 0 km/h
131 04-08-2010 10:00:00 21.08 C 9.13 g/m*3 21.08 C 0 km/h
132 04-08-2010 11:00:00 22.5 C 8.11 g/m*3 22.5 C 0 km/h
133 04-08-2010 12:00:00 23.72 C 7.02 g/m*3 23.72 C 0 km/h
134 04-08-2010 13:00:00 24.98 C 6.39 g/m*3 24.98 C 0 km/h
135 04-08-2010 14:00:00 24.56 C 6.65 g/m*3 24.56 C 0 km/h
136 04-08-2010 15:00:00 23.88 C 6.83 g/m*3 23.88 C 0 km/h
137 04-08-2010 16:00:00 23.36 C 7.01 g/m*3 23.36 C 0 km/h
138 04-08-2010 17:00:00 23.1 C 7.23 g/m*3 23.1 C 0 km/h
139 04-08-2010 18:00:00 23.32 C 7.37 g/m*3 23.32 C 0 km/h
140 04-08-2010 19:00:00 22.44 C 7.84 g/m*3 22.44 C 0 km/h
141 04-08-2010 20:00:00 21.14 C 8.98 g/m*3 21.14 C 0 km/h
142 04-08-2010 21:00:00 20.1 C 9.11 g/m*3 20.1 C 0 km/h
143 04-08-2010 22:00:00 19.325 C 10.09 g/m*3 19.33 C 0 km/h
144 04-08-2010 23:00:00 18.32 C 11.46 g/m*3 18.32 C 0 km/h
145 05-08-2010 00:00:00 16.78 C 12.37 g/m*3 16.78 C 0 km/h
146 05-08-2010 01:00:00 16.28 C 12.44 g/m*3 16.28 C 0 km/h
147 05-08-2010 02:00:00 15.82 C 12.37 g/m*3 15.82 C 0 km/h
148 05-08-2010 03:00:00 15.54 C 12.3 g/m*3 15.54 C 0 km/h
149 05-08-2010 04:00:00 15.3 C 12.14 g/m*3 15.3 C 0 km/h
150 05-08-2010 05:00:00 15.32 C 12.21 g/m*3 15.32 C 0 km/h
Sensor: Nr:Datum:Temp:Abs-Feuchte:Windchill:Wind:
Aussen-T/F 151 05-08-2010 06:00:00 15.68 C 12.56 g/m*3 15.68 C 0 km/h
152 05-08-2010 07:00:00 15.72 C 12.57 g/m*3 15.72 C 0 km/h
153 05-08-2010 08:00:00 16.2 C 12.55 g/m*3 16.2 C 0 km/h
154 05-08-2010 09:00:00 16.84 C 11.44 g/m*3 16.84 C 0 km/h
155 05-08-2010 10:00:00 17.46 C 10.38 g/m*3 17.46 C 0 km/h
156 05-08-2010 11:00:00 18.36 C 9.67 g/m*3 18.36 C 0 km/h
157 05-08-2010 12:00:00 18.42 C 9.35 g/m*3 18.42 C 0 km/h
158 05-08-2010 13:00:00 18.98 C 8.2 g/m*3 18.98 C 0 km/h
159 05-08-2010 14:00:00 21.28 C 7.56 g/m*3 21.28 C 0 km/h
160 05-08-2010 15:00:00 23 C 6.41 g/m*3 23 C 0 km/h
161 05-08-2010 16:00:00 25.08 C 5.69 g/m*3 25.08 C 0 km/h
162 05-08-2010 17:00:00 23.98 C 5.3 g/m*3 23.98 C 0 km/h
163 05-08-2010 18:00:00 22.7 C 5.62 g/m*3 22.7 C 0 km/h
164 05-08-2010 19:00:00 21.26 C 6.17 g/m*3 21.26 C 0 km/h
165 05-08-2010 20:00:00 20.22 C 6.9 g/m*3 20.22 C 0 km/h
166 05-08-2010 21:00:00 18.94 C 7.15 g/m*3 18.94 C 0 km/h
167 05-08-2010 22:00:00 17.7 C 7.48 g/m*3 17.7 C 0 km/h
168 05-08-2010 23:00:00 17 C 8.1 g/m*3 17 C 0 km/h
169 06-08-2010 00:00:00 16.02 C 8.48 g/m*3 16.02 C 0 km/h
170 06-08-2010 01:00:00 15.26 C 8.62 g/m*3 15.26 C 0 km/h
171 06-08-2010 02:00:00 14.52 C 8.87 g/m*3 14.52 C 0 km/h
172 06-08-2010 03:00:00 13.96 C 8.86 g/m*3 13.96 C 0 km/h
173 06-08-2010 04:00:00 13.44 C 9.3 g/m*3 13.44 C 0 km/h
174 06-08-2010 05:00:00 12.96 C 9.34 g/m*3 12.96 C 0 km/h
175 06-08-2010 06:00:00 13.34 C 9.29 g/m*3 13.34 C 0 km/h
Sensor: Nr:Datum:Temp:Abs-Feuchte:Windchill:Wind:
Aussen-T/F 176 06-08-2010 07:00:00 13.18 C 9.27 g/m*3 13.18 C 0 km/h
177 06-08-2010 08:00:00 13.48 C 9.49 g/m*3 13.48 C 0 km/h
178 06-08-2010 09:00:00 15.46 C 9.44 g/m*3 15.46 C 0 km/h
179 06-08-2010 10:00:00 17.84 C 8.31 g/m*3 17.84 C 0 km/h
180 06-08-2010 11:00:00 19.84 C 7.22 g/m*3 19.84 C 0 km/h
181 06-08-2010 12:00:00 21.34 C 6.17 g/m*3 21.34 C 0 km/h
182 06-08-2010 13:00:00 23.7 C 4.79 g/m*3 23.7 C 0 km/h
183 06-08-2010 14:00:00 24.84 C 4.56 g/m*3 24.84 C 0 km/h
184 06-08-2010 15:00:00 25.28 C 4.68 g/m*3 25.28 C 0 km/h
185 06-08-2010 16:00:00 28.1 C 5.47 g/m*3 28.1 C 0 km/h
186 06-08-2010 17:00:00 24.86 C 7.63 g/m*3 24.86 C 0 km/h
187 06-08-2010 18:00:00 26.42 C 4.98 g/m*3 26.42 C 0 km/h
188 06-08-2010 19:00:00 26.2 C 4.92 g/m*3 26.2 C 0 km/h
189 06-08-2010 20:00:00 23.66 C 5.29 g/m*3 23.66 C 0 km/h
190 06-08-2010 21:00:00 19.3 C 6.14 g/m*3 19.3 C 0 km/h
191 06-08-2010 22:00:00 17.72 C 6.34 g/m*3 17.72 C 0 km/h
192 06-08-2010 23:00:00 16.4 C 6.67 g/m*3 16.4 C 0 km/h
193 07-08-2010 00:00:00 15.04 C 7.15 g/m*3 15.04 C 0 km/h
194 07-08-2010 01:00:00 13.94 C 7.55 g/m*3 13.94 C 0 km/h
195 07-08-2010 02:00:00 13 C 7.89 g/m*3 13 C 0 km/h
196 07-08-2010 03:00:00 12.32 C 7.74 g/m*3 12.32 C 0 km/h
197 07-08-2010 04:00:00 11.64 C 7.71 g/m*3 11.64 C 0 km/h
198 07-08-2010 05:00:00 11.06 C 7.7 g/m*3 11.06 C 0 km/h
199 07-08-2010 06:00:00 10.48 C 7.77 g/m*3 10.48 C 0 km/h
200 07-08-2010 07:00:00 10.7 C 7.96 g/m*3 10.7 C 0 km/h
Sensor: Nr:Datum:Temp:Abs-Feuchte:Windchill:Wind:
Aussen-T/F 201 07-08-2010 08:00:00 11.74 C 8.07 g/m*3 11.74 C 0 km/h
202 07-08-2010 09:00:00 14.06 C 8.4 g/m*3 14.06 C 0 km/h
203 07-08-2010 10:00:00 18.22 C 8.5 g/m*3 18.22 C 0 km/h
204 07-08-2010 11:00:00 21.26 C 6.36 g/m*3 21.26 C 0 km/h
205 07-08-2010 12:00:00 22.86 C 5.46 g/m*3 22.86 C 0 km/h
206 07-08-2010 13:00:00 25.48 C 4.87 g/m*3 25.48 C 0 km/h
207 07-08-2010 14:00:00 26.66 C 5.05 g/m*3 26.66 C 0 km/h
208 07-08-2010 15:00:00 27.78 C 5.37 g/m*3 27.78 C 0 km/h
209 07-08-2010 16:00:00 29.2 C 5.81 g/m*3 29.2 C 0 km/h
210 07-08-2010 17:00:00 29.3 C 5.84 g/m*3 29.3 C 0 km/h
211 07-08-2010 18:00:00 27.4 C 6.26 g/m*3 27.4 C 0 km/h
212 07-08-2010 19:00:00 25.16 C 6.83 g/m*3 25.16 C 0 km/h
213 07-08-2010 20:00:00 23.86 C 6.99 g/m*3 23.86 C 0 km/h
214 07-08-2010 21:00:00 22.46 C 7.05 g/m*3 22.46 C 0 km/h
215 07-08-2010 22:00:00 21.96 C 7.4 g/m*3 21.96 C 0 km/h
216 07-08-2010 23:00:00 21.6 C 7.74 g/m*3 21.6 C 0 km/h
217 08-08-2010 00:00:00 21.04 C 8.12 g/m*3 21.04 C 0 km/h
218 08-08-2010 01:00:00 20.16 C 8.44 g/m*3 20.16 C 0 km/h
219 08-08-2010 02:00:00 19.82 C 9.44 g/m*3 19.82 C 0 km/h
220 08-08-2010 03:00:00 18.68 C 10.01 g/m*3 18.68 C 0 km/h
221 08-08-2010 04:00:00 18.36 C 10.39 g/m*3 18.36 C 0 km/h
222 08-08-2010 05:00:00 17.56 C 11.46 g/m*3 17.56 C 0 km/h
223 08-08-2010 06:00:00 16.68 C 12.49 g/m*3 16.68 C 0 km/h
224 08-08-2010 07:00:00 16.66 C 12.96 g/m*3 16.66 C 0 km/h
225 08-08-2010 08:00:00 17.2 C 13.47 g/m*3 17.2 C 0 km/h
Sensor: Nr:Datum:Temp:Abs-Feuchte:Windchill:Wind:
Aussen-T/F 226 08-08-2010 09:00:00 17.64 C 13.35 g/m*3 17.64 C 0 km/h
227 08-08-2010 10:00:00 18.46 C 12.66 g/m*3 18.46 C 0 km/h
228 08-08-2010 11:00:00 16.48 C 12.15 g/m*3 16.48 C 0 km/h
229 08-08-2010 12:00:00 16.58 C 12.56 g/m*3 16.58 C 0 km/h
230 08-08-2010 13:00:00 17.16 C 12.86 g/m*3 17.16 C 0 km/h
231 08-08-2010 14:00:00 18.98 C 12.57 g/m*3 18.98 C 0 km/h
232 08-08-2010 15:00:00 20.18 C 12.5 g/m*3 20.18 C 0 km/h
233 08-08-2010 16:00:00 19.94 C 12.36 g/m*3 19.94 C 0 km/h
234 08-08-2010 17:00:00 21.68 C 12 g/m*3 21.68 C 0 km/h
235 08-08-2010 18:00:00 21.42 C 10.21 g/m*3 21.42 C 0 km/h
236 08-08-2010 19:00:00 19.98 C 10.77 g/m*3 19.98 C 0 km/h
237 08-08-2010 20:00:00 17.72 C 11.81 g/m*3 17.72 C 0 km/h
238 08-08-2010 21:00:00 17.46 C 11.42 g/m*3 17.46 C 0 km/h
239 08-08-2010 22:00:00 17.1 C 11.5 g/m*3 17.1 C 0 km/h
240 08-08-2010 23:00:00 16.7 C 11.68 g/m*3 16.7 C 0 km/h
241 09-08-2010 00:00:00 16.42 C 12.05 g/m*3 16.42 C 0 km/h
242 09-08-2010 01:00:00 16.44 C 12.17 g/m*3 16.44 C 0 km/h
243 09-08-2010 02:00:00 15.6 C 11.68 g/m*3 15.6 C 0 km/h
244 09-08-2010 03:00:00 15.6 C 11.7 g/m*3 15.6 C 0 km/h
245 09-08-2010 04:00:00 15.74 C 11.4 g/m*3 15.74 C 0 km/h
246 09-08-2010 05:00:00 14.84 C 10.97 g/m*3 14.84 C 0 km/h
247 09-08-2010 06:00:00 14.6 C 11.31 g/m*3 14.6 C 0 km/h
248 09-08-2010 07:00:00 14.6 C 11.34 g/m*3 14.6 C 0 km/h
249 09-08-2010 08:00:00 15.22 C 11.05 g/m*3 15.22 C 0 km/h
250 09-08-2010 09:00:00 15.8 C 10.82 g/m*3 15.8 C 0 km/h
Sensor: Nr:Datum:Temp:Abs-Feuchte:Windchill:Wind:
Aussen-T/F 251 09-08-2010 10:00:00 17.4 C 10.55 g/m*3 17.4 C 0 km/h
252 09-08-2010 11:00:00 19.6 C 9.25 g/m*3 19.6 C 0 km/h
253 09-08-2010 12:00:00 21.3 C 8.61 g/m*3 21.3 C 0 km/h
254 09-08-2010 13:00:00 24.36 C 8.17 g/m*3 24.36 C 0 km/h
255 09-08-2010 14:00:00 24.1 C 7.83 g/m*3 24.1 C 0 km/h
256 09-08-2010 15:00:00 25.54 C 7.59 g/m*3 25.54 C 0 km/h
257 09-08-2010 16:00:00 26.18 C 6.84 g/m*3 26.18 C 0 km/h
258 09-08-2010 17:00:00 26.22 C 8.08 g/m*3 26.22 C 0 km/h
259 09-08-2010 18:00:00 27.5 C 7.88 g/m*3 27.5 C 0 km/h
260 09-08-2010 19:00:00 23.52 C 8.81 g/m*3 23.52 C 0 km/h
261 09-08-2010 20:00:00 21.26 C 8.55 g/m*3 21.26 C 0 km/h
262 09-08-2010 21:00:00 19.76 C 8.79 g/m*3 19.76 C 0 km/h
263 09-08-2010 22:00:00 18.64 C 8.97 g/m*3 18.64 C 0 km/h
264 09-08-2010 23:00:00 18.12 C 9.25 g/m*3 18.12 C 0 km/h
265 10-08-2010 00:00:00 17.62 C 9.79 g/m*3 17.62 C 0 km/h
266 10-08-2010 01:00:00 17.52 C 10.15 g/m*3 17.52 C 0 km/h
267 10-08-2010 02:00:00 17.38 C 10.04 g/m*3 17.38 C 0 km/h
268 10-08-2010 03:00:00 17.14 C 10.1 g/m*3 17.14 C 0 km/h
269 10-08-2010 04:00:00 16.86 C 10.24 g/m*3 16.86 C 0 km/h
270 10-08-2010 05:00:00 15.62 C 10.09 g/m*3 15.62 C 0 km/h
271 10-08-2010 06:00:00 14.66 C 9.92 g/m*3 14.66 C 0 km/h
272 10-08-2010 07:00:00 14.88 C 10.31 g/m*3 14.88 C 0 km/h
273 10-08-2010 08:00:00 15.84 C 10.71 g/m*3 15.84 C 0 km/h
274 10-08-2010 09:00:00 18.2 C 10.6 g/m*3 18.2 C 0 km/h
275 10-08-2010 10:00:00 20.92 C 11.01 g/m*3 20.92 C 0 km/h
Sensor: Nr:Datum:Temp:Abs-Feuchte:Windchill:Wind:
Aussen-T/F 276 10-08-2010 11:00:00 23.74 C 9.52 g/m*3 23.74 C 0 km/h
277 10-08-2010 12:00:00 25.9 C 6.83 g/m*3 25.9 C 0 km/h
278 10-08-2010 13:00:00 28.16 C 5.98 g/m*3 28.16 C 0 km/h
279 10-08-2010 14:00:00 29.04 C 6.22 g/m*3 29.04 C 0 km/h
280 10-08-2010 15:00:00 28.46 C 7.36 g/m*3 28.46 C 0 km/h
281 10-08-2010 16:00:00 29.88 C 6.51 g/m*3 29.88 C 0 km/h
282 10-08-2010 17:00:00 29.94 C 6.47 g/m*3 29.94 C 0 km/h
283 10-08-2010 18:00:00 29.68 C 6.74 g/m*3 29.68 C 0 km/h
284 10-08-2010 19:00:00 26.94 C 8.16 g/m*3 26.94 C 0 km/h
285 10-08-2010 20:00:00 24.76 C 8.27 g/m*3 24.76 C 0 km/h
286 10-08-2010 21:00:00 23.36 C 8.77 g/m*3 23.36 C 0 km/h
287 10-08-2010 22:00:00 22.86 C 8.93 g/m*3 22.86 C 0 km/h
288 10-08-2010 23:00:00 21.9 C 9.26 g/m*3 21.9 C 0 km/h
289 11-08-2010 00:00:00 21.46 C 9.67 g/m*3 21.46 C 0 km/h
290 11-08-2010 01:00:00 20.54 C 10.56 g/m*3 20.54 C 0 km/h
291 11-08-2010 02:00:00 18.38 C 12.32 g/m*3 18.38 C 0 km/h
292 11-08-2010 03:00:00 17.64 C 13.14 g/m*3 17.64 C 0 km/h
293 11-08-2010 04:00:00 17.52 C 13.4 g/m*3 17.52 C 0 km/h
294 11-08-2010 05:00:00 17.42 C 13.24 g/m*3 17.42 C 0 km/h
295 11-08-2010 06:00:00 17.4 C 13.04 g/m*3 17.4 C 0 km/h
296 11-08-2010 07:00:00 17.62 C 13.03 g/m*3 17.62 C 0 km/h
297 11-08-2010 08:00:00 18.68 C 13.02 g/m*3 18.68 C 0 km/h
298 11-08-2010 09:00:00 19.64 C 11.51 g/m*3 19.64 C 0 km/h
299 11-08-2010 10:00:00 20.8 C 11.08 g/m*3 20.8 C 0 km/h
300 11-08-2010 11:00:00 20.62 C 11.18 g/m*3 20.62 C 0 km/h
Sensor: Nr:Datum:Temp:Abs-Feuchte:Windchill:Wind:
Aussen-T/F 301 11-08-2010 12:00:00 22.46 C 11 g/m*3 22.46 C 0 km/h
302 11-08-2010 13:00:00 23.8 C 10.37 g/m*3 23.8 C 0 km/h
303 11-08-2010 14:00:00 24.4 C 10.1 g/m*3 24.4 C 0 km/h
304 11-08-2010 15:00:00 25.56 C 9.88 g/m*3 25.56 C 0 km/h
305 11-08-2010 16:00:00 22.88 C 12 g/m*3 22.88 C 0 km/h
306 11-08-2010 17:00:00 21.74 C 14 g/m*3 21.74 C 0 km/h
307 11-08-2010 18:00:00 22.86 C 14.31 g/m*3 22.86 C 0 km/h
308 11-08-2010 19:00:00 21.28 C 13.7 g/m*3 21.28 C 0 km/h
309 11-08-2010 20:00:00 19.56 C 13.57 g/m*3 19.56 C 0 km/h
310 11-08-2010 21:00:00 18.84 C 14.4 g/m*3 18.84 C 0 km/h
311 11-08-2010 22:00:00 18.48 C 14.38 g/m*3 18.48 C 0 km/h
312 11-08-2010 23:00:00 18.3 C 14.38 g/m*3 18.3 C 0 km/h
313 12-08-2010 00:00:00 17.88 C 14.27 g/m*3 17.88 C 0 km/h
314 12-08-2010 01:00:00 17.52 C 14.03 g/m*3 17.52 C 0 km/h
315 12-08-2010 02:00:00 17.16 C 13.73 g/m*3 17.16 C 0 km/h
316 12-08-2010 03:00:00 16.86 C 13.49 g/m*3 16.86 C 0 km/h
317 12-08-2010 04:00:00 16.46 C 13.22 g/m*3 16.46 C 0 km/h
318 12-08-2010 05:00:00 16.48 C 13.3 g/m*3 16.48 C 0 km/h
319 12-08-2010 06:00:00 16.72 C 13.52 g/m*3 16.72 C 0 km/h
320 12-08-2010 07:00:00 16.86 C 13.6 g/m*3 16.86 C 0 km/h
321 12-08-2010 08:00:00 16.64 C 12.89 g/m*3 16.64 C 0 km/h
322 12-08-2010 09:00:00 17.72 C 13.44 g/m*3 17.72 C 0 km/h
323 12-08-2010 10:00:00 18.58 C 12.24 g/m*3 18.58 C 0 km/h
324 12-08-2010 11:00:00 18.62 C 12.17 g/m*3 18.62 C 0 km/h
325 12-08-2010 12:00:00 19.56 C 11.25 g/m*3 19.56 C 0 km/h
Sensor: Nr:Datum:Temp:Abs-Feuchte:Windchill:Wind:
Aussen-T/F 326 12-08-2010 13:00:00 20.26 C 9.58 g/m*3 20.26 C 0 km/h
327 12-08-2010 14:00:00 20.3 C 9.04 g/m*3 20.3 C 0 km/h
328 12-08-2010 15:00:00 23.02 C 8.4 g/m*3 23.02 C 0 km/h
329 12-08-2010 16:00:00 22.56 C 7.14 g/m*3 22.56 C 0 km/h
330 12-08-2010 17:00:00 25.42 C 5.89 g/m*3 25.42 C 0 km/h
331 12-08-2010 18:00:00 23.3 C 6.65 g/m*3 23.3 C 0 km/h
332 12-08-2010 19:00:00 21.68 C 8.23 g/m*3 21.68 C 0 km/h
333 12-08-2010 20:00:00 20.1 C 8.45 g/m*3 20.1 C 0 km/h
334 12-08-2010 21:00:00 19.14 C 7.99 g/m*3 19.14 C 0 km/h
335 12-08-2010 22:00:00 18.44 C 8.58 g/m*3 18.44 C 0 km/h
336 12-08-2010 23:00:00 17.34 C 9.19 g/m*3 17.34 C 0 km/h
337 13-08-2010 00:00:00 16.82 C 9.42 g/m*3 16.82 C 0 km/h
338 13-08-2010 01:00:00 16.18 C 9.26 g/m*3 16.18 C 0 km/h
339 13-08-2010 02:00:00 15.82 C 9.68 g/m*3 15.82 C 0 km/h
340 13-08-2010 03:00:00 15.34 C 9.84 g/m*3 15.34 C 0 km/h
341 13-08-2010 04:00:00 15.04 C 10 g/m*3 15.04 C 0 km/h
342 13-08-2010 05:00:00 14.76 C 9.98 g/m*3 14.76 C 0 km/h
343 13-08-2010 06:00:00 14.7 C 10.05 g/m*3 14.7 C 0 km/h
344 13-08-2010 07:00:00 15.02 C 10.12 g/m*3 15.02 C 0 km/h
345 13-08-2010 08:00:00 15.16 C 10.33 g/m*3 15.16 C 0 km/h
346 13-08-2010 09:00:00 16.26 C 10.3 g/m*3 16.26 C 0 km/h
347 13-08-2010 10:00:00 18.84 C 9.65 g/m*3 18.84 C 0 km/h
348 13-08-2010 11:00:00 21.24 C 8.4 g/m*3 21.24 C 0 km/h
349 13-08-2010 12:00:00 22.2 C 7.74 g/m*3 22.2 C 0 km/h
350 13-08-2010 13:00:00 23 C 6.99 g/m*3 23 C 0 km/h
Sensor: Nr:Datum:Temp:Abs-Feuchte:Windchill:Wind:
Aussen-T/F 351 13-08-2010 14:00:00 23.92 C 6.5 g/m*3 23.92 C 0 km/h
352 13-08-2010 15:00:00 24.42 C 6.02 g/m*3 24.42 C 0 km/h
353 13-08-2010 16:00:00 24.24 C 6.75 g/m*3 24.24 C 0 km/h
354 13-08-2010 17:00:00 23.66 C 7.43 g/m*3 23.66 C 0 km/h
355 13-08-2010 18:00:00 22.5 C 8.15 g/m*3 22.5 C 0 km/h
356 13-08-2010 19:00:00 21.84 C 7.88 g/m*3 21.84 C 0 km/h
357 13-08-2010 20:00:00 19.9 C 7.94 g/m*3 19.9 C 0 km/h
358 13-08-2010 21:00:00 17.66 C 7.83 g/m*3 17.66 C 0 km/h
359 13-08-2010 22:00:00 16.72 C 8.2 g/m*3 16.72 C 0 km/h
360 13-08-2010 23:00:00 15.44 C 8.64 g/m*3 15.44 C 0 km/h
361 14-08-2010 00:00:00 14.7 C 8.91 g/m*3 14.7 C 0 km/h
362 14-08-2010 01:00:00 13.98 C 9.11 g/m*3 13.98 C 0 km/h
363 14-08-2010 02:00:00 13.32 C 9 g/m*3 13.32 C 0 km/h
364 14-08-2010 03:00:00 12.6 C 8.87 g/m*3 12.6 C 0 km/h
365 14-08-2010 04:00:00 12.06 C 8.75 g/m*3 12.06 C 0 km/h
366 14-08-2010 05:00:00 11.62 C 8.76 g/m*3 11.62 C 0 km/h
367 14-08-2010 06:00:00 11.12 C 8.73 g/m*3 11.12 C 0 km/h
368 14-08-2010 07:00:00 11.28 C 8.9 g/m*3 11.28 C 0 km/h
369 14-08-2010 08:00:00 12.32 C 9.42 g/m*3 12.32 C 0 km/h
370 14-08-2010 09:00:00 14.4 C 9.94 g/m*3 14.4 C 0 km/h
371 14-08-2010 10:00:00 17.62 C 10.39 g/m*3 17.62 C 0 km/h
372 14-08-2010 11:00:00 20.68 C 10.36 g/m*3 20.68 C 0 km/h
373 14-08-2010 12:00:00 22.96 C 9.19 g/m*3 22.96 C 0 km/h
374 14-08-2010 13:00:00 26.24 C 7.4 g/m*3 26.24 C 0 km/h
375 14-08-2010 14:00:00 27.62 C 6.98 g/m*3 27.62 C 0 km/h
Sensor: Nr:Datum:Temp:Abs-Feuchte:Windchill:Wind:
Aussen-T/F 376 14-08-2010 15:00:00 28.04 C 6.7 g/m*3 28.04 C 0 km/h
377 14-08-2010 16:00:00 30.1 C 6.46 g/m*3 30.1 C 0 km/h
378 14-08-2010 17:00:00 30.88 C 6.36 g/m*3 30.88 C 0 km/h
379 14-08-2010 18:00:00 31.22 C 6.48 g/m*3 31.22 C 0 km/h
380 14-08-2010 19:00:00 27.86 C 7.56 g/m*3 27.86 C 0 km/h
381 14-08-2010 20:00:00 24.86 C 8.18 g/m*3 24.86 C 0 km/h
382 14-08-2010 21:00:00 22.14 C 8.73 g/m*3 22.14 C 0 km/h
383 14-08-2010 22:00:00 21.24 C 9.14 g/m*3 21.24 C 0 km/h
384 14-08-2010 23:00:00 20.36 C 9.14 g/m*3 20.36 C 0 km/h
385 15-08-2010 00:00:00 19.74 C 8.82 g/m*3 19.74 C 0 km/h
386 15-08-2010 01:00:00 19.38 C 8.73 g/m*3 19.38 C 0 km/h
387 15-08-2010 02:00:00 18.98 C 8.98 g/m*3 18.98 C 0 km/h
388 15-08-2010 03:00:00 18.6 C 9.29 g/m*3 18.6 C 0 km/h
389 15-08-2010 04:00:00 18.14 C 9.14 g/m*3 18.14 C 0 km/h
390 15-08-2010 05:00:00 18.06 C 8.88 g/m*3 18.06 C 0 km/h
391 15-08-2010 06:00:00 17.9 C 9.04 g/m*3 17.9 C 0 km/h
392 15-08-2010 07:00:00 17.1 C 9.69 g/m*3 17.1 C 0 km/h
393 15-08-2010 08:00:00 15.24 C 11.48 g/m*3 15.24 C 0 km/h
394 15-08-2010 09:00:00 15.2 C 11.99 g/m*3 15.2 C 0 km/h
395 15-08-2010 10:00:00 15.48 C 12.44 g/m*3 15.48 C 0 km/h
396 15-08-2010 11:00:00 15.82 C 12.8 g/m*3 15.82 C 0 km/h
397 15-08-2010 12:00:00 16.04 C 12.97 g/m*3 16.04 C 0 km/h
398 15-08-2010 13:00:00 16.14 C 13.05 g/m*3 16.14 C 0 km/h
399 15-08-2010 14:00:00 16.44 C 13.29 g/m*3 16.44 C 0 km/h
400 15-08-2010 15:00:00 16.4 C 13.26 g/m*3 16.4 C 0 km/h
Sensor: Nr:Datum:Temp:Abs-Feuchte:Windchill:Wind:
Aussen-T/F 401 15-08-2010 16:00:00 16.48 C 13.32 g/m*3 16.48 C 0 km/h
402 15-08-2010 17:00:00 16.68 C 13.48 g/m*3 16.68 C 0 km/h
403 15-08-2010 18:00:00 16.6 C 13.42 g/m*3 16.6 C 0 km/h
404 15-08-2010 19:00:00 16.6 C 13.42 g/m*3 16.6 C 0 km/h
405 15-08-2010 20:00:00 16.38 C 13.24 g/m*3 16.38 C 0 km/h
406 15-08-2010 21:00:00 16.24 C 13.13 g/m*3 16.24 C 0 km/h
407 15-08-2010 22:00:00 16.14 C 13.05 g/m*3 16.14 C 0 km/h
408 15-08-2010 23:00:00 15.5 C 12.56 g/m*3 15.5 C 0 km/h
409 16-08-2010 00:00:00 14.9 C 12.11 g/m*3 14.9 C 0 km/h
410 16-08-2010 01:00:00 14.72 C 11.87 g/m*3 14.72 C 0 km/h
411 16-08-2010 02:00:00 14.6 C 11.61 g/m*3 14.6 C 0 km/h
412 16-08-2010 03:00:00 14.6 C 11.64 g/m*3 14.6 C 0 km/h
413 16-08-2010 04:00:00 14.5 C 11.34 g/m*3 14.5 C 0 km/h
414 16-08-2010 05:00:00 14.5 C 11.39 g/m*3 14.5 C 0 km/h
415 16-08-2010 06:00:00 14.54 C 11.37 g/m*3 14.54 C 0 km/h
416 16-08-2010 07:00:00 14.84 C 11.45 g/m*3 14.84 C 0 km/h
417 16-08-2010 08:00:00 15.92 C 11.44 g/m*3 15.92 C 0 km/h
418 16-08-2010 09:00:00 17.4 C 11.09 g/m*3 17.4 C 0 km/h
419 16-08-2010 10:00:00 17.2 C 10.84 g/m*3 17.2 C 0 km/h
420 16-08-2010 11:00:00 17.7 C 11.09 g/m*3 17.7 C 0 km/h
421 16-08-2010 12:00:00 17.76 C 11.45 g/m*3 17.76 C 0 km/h
422 16-08-2010 13:00:00 18.38 C 10.59 g/m*3 18.38 C 0 km/h
423 16-08-2010 14:00:00 19.88 C 9.88 g/m*3 19.88 C 0 km/h
424 16-08-2010 15:00:00 19.72 C 9.42 g/m*3 19.72 C 0 km/h
425 16-08-2010 16:00:00 19.76 C 9.75 g/m*3 19.76 C 0 km/h
Sensor: Nr:Datum:Temp:Abs-Feuchte:Windchill:Wind:
Aussen-T/F 426 16-08-2010 17:00:00 19.96 C 9.79 g/m*3 19.96 C 0 km/h
427 16-08-2010 18:00:00 19.76 C 9.65 g/m*3 19.76 C 0 km/h
428 16-08-2010 19:00:00 18.6 C 10.06 g/m*3 18.6 C 0 km/h
429 16-08-2010 20:00:00 17.9 C 10.63 g/m*3 17.9 C 0 km/h
430 16-08-2010 21:00:00 17.44 C 11.32 g/m*3 17.44 C 0 km/h
431 16-08-2010 22:00:00 17.58 C 11.83 g/m*3 17.58 C 0 km/h
432 16-08-2010 23:00:00 17.76 C 12.05 g/m*3 17.76 C 0 km/h
433 17-08-2010 00:00:00 17.62 C 11.95 g/m*3 17.62 C 0 km/h
434 17-08-2010 01:00:00 16.68 C 12.29 g/m*3 16.68 C 0 km/h
435 17-08-2010 02:00:00 16.48 C 12.37 g/m*3 16.48 C 0 km/h
436 17-08-2010 03:00:00 16.42 C 11.79 g/m*3 16.42 C 0 km/h
437 17-08-2010 04:00:00 16.42 C 11.18 g/m*3 16.42 C 0 km/h
438 17-08-2010 05:00:00 15.62 C 11.34 g/m*3 15.62 C 0 km/h
439 17-08-2010 06:00:00 15.84 C 11.23 g/m*3 15.84 C 0 km/h
440 17-08-2010 07:00:00 16.36 C 10.83 g/m*3 16.36 C 0 km/h
441 17-08-2010 08:00:00 16.72 C 10.33 g/m*3 16.72 C 0 km/h
442 17-08-2010 09:00:00 16.98 C 9.65 g/m*3 16.98 C 0 km/h
443 17-08-2010 10:00:00 17.06 C 9.35 g/m*3 17.06 C 0 km/h
444 17-08-2010 11:00:00 17.58 C 9.2 g/m*3 17.58 C 0 km/h
445 17-08-2010 12:00:00 16.62 C 10.13 g/m*3 16.62 C 0 km/h
446 17-08-2010 13:00:00 17.3 C 11.73 g/m*3 17.3 C 0 km/h
447 17-08-2010 14:00:00 17.74 C 9.16 g/m*3 17.74 C 0 km/h
448 17-08-2010 15:00:00 17.08 C 8.75 g/m*3 17.08 C 0 km/h
449 17-08-2010 16:00:00 14.7 C 9.74 g/m*3 14.7 C 0 km/h
450 17-08-2010 17:00:00 14.42 C 9.98 g/m*3 14.42 C 0 km/h
Sensor: Nr:Datum:Temp:Abs-Feuchte:Windchill:Wind:
Aussen-T/F 451 17-08-2010 18:00:00 14.8 C 11 g/m*3 14.8 C 0 km/h
452 17-08-2010 19:00:00 14.84 C 11.05 g/m*3 14.84 C 0 km/h
453 17-08-2010 20:00:00 14.32 C 11.02 g/m*3 14.32 C 0 km/h
454 17-08-2010 21:00:00 14.38 C 11.31 g/m*3 14.38 C 0 km/h
455 17-08-2010 22:00:00 14.62 C 10.75 g/m*3 14.62 C 0 km/h
456 17-08-2010 23:00:00 15 C 10.05 g/m*3 15 C 0 km/h
457 18-08-2010 00:00:00 15.52 C 9.66 g/m*3 15.52 C 0 km/h
458 18-08-2010 01:00:00 15.76 C 9.43 g/m*3 15.76 C 0 km/h
459 18-08-2010 02:00:00 15.54 C 9.43 g/m*3 15.54 C 0 km/h
460 18-08-2010 03:00:00 15.46 C 9.49 g/m*3 15.46 C 0 km/h
461 18-08-2010 04:00:00 15.2 C 9.55 g/m*3 15.2 C 0 km/h
462 18-08-2010 05:00:00 14.96 C 9.8 g/m*3 14.96 C 0 km/h
463 18-08-2010 06:00:00 15.08 C 9.56 g/m*3 15.08 C 0 km/h
464 18-08-2010 07:00:00 15.44 C 9.69 g/m*3 15.44 C 0 km/h
465 18-08-2010 08:00:00 16.16 C 9.88 g/m*3 16.16 C 0 km/h
466 18-08-2010 09:00:00 17.1 C 10.16 g/m*3 17.1 C 0 km/h
467 18-08-2010 10:00:00 18.16 C 10.2 g/m*3 18.16 C 0 km/h
468 18-08-2010 11:00:00 18.7 C 10.18 g/m*3 18.7 C 0 km/h
469 18-08-2010 12:00:00 18.82 C 10.67 g/m*3 18.82 C 0 km/h
470 18-08-2010 13:00:00 20.8 C 10.25 g/m*3 20.8 C 0 km/h
471 18-08-2010 14:00:00 22.84 C 9.04 g/m*3 22.84 C 0 km/h
472 18-08-2010 15:00:00 22.24 C 9.01 g/m*3 22.24 C 0 km/h
473 18-08-2010 16:00:00 23.68 C 9.02 g/m*3 23.68 C 0 km/h
474 18-08-2010 17:00:00 23.88 C 8.86 g/m*3 23.88 C 0 km/h
475 18-08-2010 18:00:00 22.36 C 9.15 g/m*3 22.36 C 0 km/h
Sensor: Nr:Datum:Temp:Abs-Feuchte:Windchill:Wind:
Aussen-T/F 476 18-08-2010 19:00:00 20.68 C 9.35 g/m*3 20.68 C 0 km/h
477 18-08-2010 20:00:00 19.44 C 10 g/m*3 19.44 C 0 km/h
478 18-08-2010 21:00:00 18.82 C 10.19 g/m*3 18.82 C 0 km/h
479 18-08-2010 22:00:00 17.6 C 10.59 g/m*3 17.6 C 0 km/h
480 18-08-2010 23:00:00 17.58 C 10.19 g/m*3 17.58 C 0 km/h
481 19-08-2010 00:00:00 17.36 C 9.14 g/m*3 17.36 C 0 km/h
482 19-08-2010 01:00:00 16.86 C 9.18 g/m*3 16.86 C 0 km/h
483 19-08-2010 02:00:00 16.32 C 8.81 g/m*3 16.32 C 0 km/h
484 19-08-2010 03:00:00 15.9 C 9.21 g/m*3 15.9 C 0 km/h
485 19-08-2010 04:00:00 15.54 C 9.38 g/m*3 15.54 C 0 km/h
486 19-08-2010 05:00:00 15.1 C 9.31 g/m*3 15.1 C 0 km/h
487 19-08-2010 06:00:00 14.18 C 8.9 g/m*3 14.18 C 0 km/h
488 19-08-2010 07:00:00 13.92 C 8.21 g/m*3 13.92 C 0 km/h
489 19-08-2010 08:00:00 14.78 C 8.05 g/m*3 14.78 C 0 km/h
490 19-08-2010 09:00:00 15.72 C 8.06 g/m*3 15.72 C 0 km/h
491 19-08-2010 10:00:00 17.9 C 7.7 g/m*3 17.9 C 0 km/h
492 19-08-2010 11:00:00 20 C 7.26 g/m*3 20 C 0 km/h
493 19-08-2010 12:00:00 21.44 C 6.65 g/m*3 21.44 C 0 km/h
494 19-08-2010 13:00:00 22.64 C 6.16 g/m*3 22.64 C 0 km/h
495 19-08-2010 14:00:00 23.04 C 6.02 g/m*3 23.04 C 0 km/h
496 19-08-2010 15:00:00 23.74 C 6.22 g/m*3 23.74 C 0 km/h
497 19-08-2010 16:00:00 23.28 C 7.64 g/m*3 23.28 C 0 km/h
498 19-08-2010 17:00:00 23.9 C 7.53 g/m*3 23.9 C 0 km/h
499 19-08-2010 18:00:00 25.42 C 5.75 g/m*3 25.42 C 0 km/h
500 19-08-2010 19:00:00 25.24 C 6.63 g/m*3 25.24 C 0 km/h
Sensor: Nr:Datum:Temp:Abs-Feuchte:Windchill:Wind:
Aussen-T/F 501 19-08-2010 20:00:00 20.5 C 7.15 g/m*3 20.5 C 0 km/h
502 19-08-2010 21:00:00 18.08 C 7.78 g/m*3 18.08 C 0 km/h
503 19-08-2010 22:00:00 16.86 C 8.01 g/m*3 16.86 C 0 km/h
504 19-08-2010 23:00:00 15.62 C 8.36 g/m*3 15.62 C 0 km/h
505 20-08-2010 00:00:00 14.72 C 8.55 g/m*3 14.72 C 0 km/h
506 20-08-2010 01:00:00 14.04 C 8.61 g/m*3 14.04 C 0 km/h
507 20-08-2010 02:00:00 13.34 C 8.59 g/m*3 13.34 C 0 km/h
508 20-08-2010 03:00:00 12.8 C 8.62 g/m*3 12.8 C 0 km/h
509 20-08-2010 04:00:00 12.26 C 8.58 g/m*3 12.26 C 0 km/h
510 20-08-2010 05:00:00 11.9 C 8.56 g/m*3 11.9 C 0 km/h
511 20-08-2010 06:00:00 11.48 C 8.54 g/m*3 11.48 C 0 km/h
512 20-08-2010 07:00:00 11.76 C 8.78 g/m*3 11.76 C 0 km/h
513 20-08-2010 08:00:00 12.54 C 9.19 g/m*3 12.54 C 0 km/h
514 20-08-2010 09:00:00 14.5 C 9.85 g/m*3 14.5 C 0 km/h
515 20-08-2010 10:00:00 18.02 C 10.3 g/m*3 18.02 C 0 km/h
516 20-08-2010 11:00:00 20.98 C 10.87 g/m*3 20.98 C 0 km/h
517 20-08-2010 12:00:00 23.76 C 10.86 g/m*3 23.76 C 0 km/h
518 20-08-2010 13:00:00 26.76 C 9.04 g/m*3 26.76 C 0 km/h
519 20-08-2010 14:00:00 28.36 C 7.82 g/m*3 28.36 C 0 km/h
520 20-08-2010 15:00:00 29.54 C 7.45 g/m*3 29.54 C 0 km/h
521 20-08-2010 16:00:00 30.72 C 7.57 g/m*3 30.72 C 0 km/h
522 20-08-2010 17:00:00 31.16 C 7.29 g/m*3 31.16 C 0 km/h
523 20-08-2010 18:00:00 31.22 C 7.64 g/m*3 31.22 C 0 km/h
524 20-08-2010 19:00:00 29.58 C 8.42 g/m*3 29.58 C 0 km/h
525 20-08-2010 20:00:00 25.1 C 9.07 g/m*3 25.1 C 0 km/h
Sensor: Nr:Datum:Temp:Abs-Feuchte:Windchill:Wind:
Aussen-T/F 526 20-08-2010 21:00:00 23.08 C 9.58 g/m*3 23.08 C 0 km/h
527 20-08-2010 22:00:00 22.025 C 10.2 g/m*3 22.03 C 0 km/h
528 20-08-2010 23:00:00 20.9 C 10.64 g/m*3 20.9 C 0 km/h
529 21-08-2010 00:00:00 19.76 C 10.77 g/m*3 19.76 C 0 km/h
530 21-08-2010 01:00:00 18.84 C 11.01 g/m*3 18.84 C 0 km/h
531 21-08-2010 02:00:00 18.16 C 11.04 g/m*3 18.16 C 0 km/h
532 21-08-2010 03:00:00 17.66 C 11.11 g/m*3 17.66 C 0 km/h
533 21-08-2010 04:00:00 17.06 C 11.12 g/m*3 17.06 C 0 km/h
534 21-08-2010 05:00:00 16.46 C 10.95 g/m*3 16.46 C 0 km/h
535 21-08-2010 06:00:00 16.04 C 10.9 g/m*3 16.04 C 0 km/h
536 21-08-2010 07:00:00 16 C 11.06 g/m*3 16 C 0 km/h
537 21-08-2010 08:00:00 16.78 C 11.54 g/m*3 16.78 C 0 km/h
538 21-08-2010 09:00:00 18.42 C 12.22 g/m*3 18.42 C 0 km/h
539 21-08-2010 10:00:00 21.4 C 12.86 g/m*3 21.4 C 0 km/h
540 21-08-2010 11:00:00 24.76 C 12.17 g/m*3 24.76 C 0 km/h
541 21-08-2010 12:00:00 27.54 C 9.81 g/m*3 27.54 C 0 km/h
542 21-08-2010 13:00:00 29.12 C 9.19 g/m*3 29.12 C 0 km/h
543 21-08-2010 14:00:00 30.42 C 8.69 g/m*3 30.42 C 0 km/h
544 21-08-2010 15:00:00 31.28 C 8.51 g/m*3 31.28 C 0 km/h
545 21-08-2010 16:00:00 32.14 C 7.89 g/m*3 32.14 C 0 km/h
546 21-08-2010 17:00:00 32.38 C 7.58 g/m*3 32.38 C 0 km/h
547 21-08-2010 18:00:00 32.42 C 7.39 g/m*3 32.42 C 0 km/h
548 21-08-2010 19:00:00 31.66 C 7.96 g/m*3 31.66 C 0 km/h
549 21-08-2010 20:00:00 28.82 C 9.33 g/m*3 28.82 C 0 km/h
550 21-08-2010 21:00:00 25.72 C 10.26 g/m*3 25.72 C 0 km/h
Sensor: Nr:Datum:Temp:Abs-Feuchte:Windchill:Wind:
Aussen-T/F 551 21-08-2010 22:00:00 24.34 C 10.87 g/m*3 24.34 C 0 km/h
552 21-08-2010 23:00:00 23.16 C 11.24 g/m*3 23.16 C 0 km/h
553 22-08-2010 00:00:00 22 C 11.45 g/m*3 22 C 0 km/h
554 22-08-2010 01:00:00 21.04 C 11.68 g/m*3 21.04 C 0 km/h
555 22-08-2010 02:00:00 20.14 C 11.88 g/m*3 20.14 C 0 km/h
556 22-08-2010 03:00:00 19.52 C 12.1 g/m*3 19.52 C 0 km/h
557 22-08-2010 04:00:00 19.16 C 12.11 g/m*3 19.16 C 0 km/h
558 22-08-2010 05:00:00 18.54 C 12.08 g/m*3 18.54 C 0 km/h
559 22-08-2010 06:00:00 18 C 12.01 g/m*3 18 C 0 km/h
560 22-08-2010 07:00:00 18.3 C 12.2 g/m*3 18.3 C 0 km/h
561 22-08-2010 08:00:00 18.96 C 12.62 g/m*3 18.96 C 0 km/h
562 22-08-2010 09:00:00 20.32 C 12.64 g/m*3 20.32 C 0 km/h
563 22-08-2010 10:00:00 23.1 C 12.69 g/m*3 23.1 C 0 km/h
564 22-08-2010 11:00:00 24.88 C 12.71 g/m*3 24.88 C 0 km/h
565 22-08-2010 12:00:00 27.46 C 11.67 g/m*3 27.46 C 0 km/h
566 22-08-2010 13:00:00 28.44 C 10.53 g/m*3 28.44 C 0 km/h
567 22-08-2010 14:00:00 28.74 C 10.48 g/m*3 28.74 C 0 km/h
568 22-08-2010 15:00:00 25.76 C 12.2 g/m*3 25.76 C 0 km/h
569 22-08-2010 16:00:00 27.8 C 11.89 g/m*3 27.8 C 0 km/h
570 22-08-2010 17:00:00 26.68 C 11.88 g/m*3 26.68 C 0 km/h
571 22-08-2010 18:00:00 26.28 C 11.72 g/m*3 26.28 C 0 km/h
572 22-08-2010 19:00:00 25.52 C 11.57 g/m*3 25.52 C 0 km/h
573 22-08-2010 20:00:00 24.42 C 10.65 g/m*3 24.42 C 0 km/h
574 22-08-2010 21:00:00 23.16 C 11.49 g/m*3 23.16 C 0 km/h
575 22-08-2010 22:00:00 22.66 C 11.69 g/m*3 22.66 C 0 km/h
Sensor: Nr:Datum:Temp:Abs-Feuchte:Windchill:Wind:
Aussen-T/F 576 22-08-2010 23:00:00 21.52 C 11.89 g/m*3 21.52 C 0 km/h
577 23-08-2010 00:00:00 20.88 C 12.01 g/m*3 20.88 C 0 km/h
578 23-08-2010 01:00:00 20.38 C 12.16 g/m*3 20.38 C 0 km/h
579 23-08-2010 02:00:00 20.02 C 12.32 g/m*3 20.02 C 0 km/h
580 23-08-2010 03:00:00 19.82 C 12.31 g/m*3 19.82 C 0 km/h
581 23-08-2010 04:00:00 19.52 C 12.33 g/m*3 19.52 C 0 km/h
582 23-08-2010 05:00:00 19.44 C 12.21 g/m*3 19.44 C 0 km/h
583 23-08-2010 06:00:00 19.48 C 12.34 g/m*3 19.48 C 0 km/h
584 23-08-2010 07:00:00 19.92 C 12.49 g/m*3 19.92 C 0 km/h
585 23-08-2010 08:00:00 19.74 C 13.31 g/m*3 19.74 C 0 km/h
586 23-08-2010 09:00:00 19.44 C 14.52 g/m*3 19.44 C 0 km/h
587 23-08-2010 10:00:00 20.64 C 15.07 g/m*3 20.64 C 0 km/h
588 23-08-2010 11:00:00 22.26 C 14.78 g/m*3 22.26 C 0 km/h
589 23-08-2010 12:00:00 23.08 C 15.61 g/m*3 23.08 C 0 km/h
590 23-08-2010 13:00:00 23.68 C 14.36 g/m*3 23.68 C 0 km/h
591 23-08-2010 14:00:00 24.34 C 14.28 g/m*3 24.34 C 0 km/h
592 23-08-2010 15:00:00 25.86 C 12.32 g/m*3 25.86 C 0 km/h
593 23-08-2010 16:00:00 25.94 C 11.4 g/m*3 25.94 C 0 km/h
594 23-08-2010 17:00:00 23.58 C 11.98 g/m*3 23.58 C 0 km/h
595 23-08-2010 18:00:00 21.12 C 13.76 g/m*3 21.12 C 0 km/h
596 23-08-2010 19:00:00 20.76 C 13.77 g/m*3 20.76 C 0 km/h
597 23-08-2010 20:00:00 20.34 C 12.94 g/m*3 20.34 C 0 km/h
598 23-08-2010 21:00:00 19.8 C 12.61 g/m*3 19.8 C 0 km/h
599 23-08-2010 22:00:00 19.58 C 12.24 g/m*3 19.58 C 0 km/h
600 23-08-2010 23:00:00 19.3 C 11.94 g/m*3 19.3 C 0 km/h
Sensor: Nr:Datum:Temp:Abs-Feuchte:Windchill:Wind:
Aussen-T/F 601 24-08-2010 00:00:00 19.18 C 12.09 g/m*3 19.18 C 0 km/h
602 24-08-2010 01:00:00 19.2 C 12.43 g/m*3 19.2 C 0 km/h
603 24-08-2010 02:00:00 19.68 C 12.28 g/m*3 19.68 C 0 km/h
604 24-08-2010 03:00:00 18.34 C 11.85 g/m*3 18.34 C 0 km/h
605 24-08-2010 04:00:00 18.06 C 9.53 g/m*3 18.06 C 0 km/h
606 24-08-2010 05:00:00 17.24 C 9.51 g/m*3 17.24 C 0 km/h
607 24-08-2010 06:00:00 17.08 C 9.48 g/m*3 17.08 C 0 km/h
608 24-08-2010 07:00:00 16.44 C 9.23 g/m*3 16.44 C 0 km/h
609 24-08-2010 08:00:00 16.16 C 8.45 g/m*3 16.16 C 0 km/h
610 24-08-2010 09:00:00 16.76 C 7.3 g/m*3 16.76 C 0 km/h
611 24-08-2010 10:00:00 17.88 C 7.23 g/m*3 17.88 C 0 km/h
612 24-08-2010 11:00:00 19.08 C 6.88 g/m*3 19.08 C 0 km/h
613 24-08-2010 12:00:00 20.04 C 6.34 g/m*3 20.04 C 0 km/h
614 24-08-2010 13:00:00 21 C 5.94 g/m*3 21 C 0 km/h
615 24-08-2010 14:00:00 21.46 C 5.49 g/m*3 21.46 C 0 km/h
616 24-08-2010 15:00:00 21.82 C 5.11 g/m*3 21.82 C 0 km/h
617 24-08-2010 16:00:00 23.04 C 4.61 g/m*3 23.04 C 0 km/h
618 24-08-2010 17:00:00 23.22 C 4.7 g/m*3 23.22 C 0 km/h
619 24-08-2010 18:00:00 22.92 C 5.11 g/m*3 22.92 C 0 km/h
620 24-08-2010 19:00:00 21.68 C 5.18 g/m*3 21.68 C 0 km/h
621 24-08-2010 20:00:00 19.76 C 5.79 g/m*3 19.76 C 0 km/h
622 24-08-2010 21:00:00 18.28 C 6.12 g/m*3 18.28 C 0 km/h
623 24-08-2010 22:00:00 17.4 C 6.28 g/m*3 17.4 C 0 km/h
624 24-08-2010 23:00:00 16.78 C 6.43 g/m*3 16.78 C 0 km/h
625 25-08-2010 00:00:00 16.16 C 6.55 g/m*3 16.16 C 0 km/h
Sensor: Nr:Datum:Temp:Abs-Feuchte:Windchill:Wind:
Aussen-T/F 626 25-08-2010 01:00:00 15.52 C 6.8 g/m*3 15.52 C 0 km/h
627 25-08-2010 02:00:00 14.66 C 7.11 g/m*3 14.66 C 0 km/h
628 25-08-2010 03:00:00 13.76 C 7.56 g/m*3 13.76 C 0 km/h
629 25-08-2010 04:00:00 13.4 C 7.7 g/m*3 13.4 C 0 km/h
630 25-08-2010 05:00:00 13.38 C 7.52 g/m*3 13.38 C 0 km/h
631 25-08-2010 06:00:00 12.94 C 7.71 g/m*3 12.94 C 0 km/h
632 25-08-2010 07:00:00 12.76 C 7.84 g/m*3 12.76 C 0 km/h
633 25-08-2010 08:00:00 13.54 C 7.86 g/m*3 13.54 C 0 km/h
634 25-08-2010 09:00:00 14.92 C 7.91 g/m*3 14.92 C 0 km/h
635 25-08-2010 10:00:00 16.3 C 7.8 g/m*3 16.3 C 0 km/h
636 25-08-2010 11:00:00 17.9 C 7.82 g/m*3 17.9 C 0 km/h
637 25-08-2010 12:00:00 20 C 7.19 g/m*3 20 C 0 km/h
638 25-08-2010 13:00:00 20.82 C 6.67 g/m*3 20.82 C 0 km/h
639 25-08-2010 14:00:00 21.46 C 6.43 g/m*3 21.46 C 0 km/h
640 25-08-2010 15:00:00 23.54 C 6.1 g/m*3 23.54 C 0 km/h
641 25-08-2010 16:00:00 24.46 C 5.67 g/m*3 24.46 C 0 km/h
642 25-08-2010 17:00:00 23.2 C 6.65 g/m*3 23.2 C 0 km/h
643 25-08-2010 18:00:00 21.9 C 7.1 g/m*3 21.9 C 0 km/h
644 25-08-2010 19:00:00 20.22 C 7.91 g/m*3 20.22 C 0 km/h
645 25-08-2010 20:00:00 19.04 C 8.23 g/m*3 19.04 C 0 km/h
646 25-08-2010 21:00:00 18.12 C 8.35 g/m*3 18.12 C 0 km/h
647 25-08-2010 22:00:00 17.56 C 8.5 g/m*3 17.56 C 0 km/h
648 25-08-2010 23:00:00 17.3 C 8.81 g/m*3 17.3 C 0 km/h
649 26-08-2010 00:00:00 17.28 C 9.06 g/m*3 17.28 C 0 km/h
650 26-08-2010 01:00:00 17.48 C 9.11 g/m*3 17.48 C 0 km/h
Sensor: Nr:Datum:Temp:Abs-Feuchte:Windchill:Wind:
Aussen-T/F 651 26-08-2010 02:00:00 16.88 C 9.97 g/m*3 16.88 C 0 km/h
652 26-08-2010 03:00:00 16.86 C 10.04 g/m*3 16.86 C 0 km/h
653 26-08-2010 04:00:00 16.94 C 9.86 g/m*3 16.94 C 0 km/h
654 26-08-2010 05:00:00 18.28 C 10.31 g/m*3 18.28 C 0 km/h
655 26-08-2010 06:00:00 18.18 C 10.53 g/m*3 18.18 C 0 km/h
656 26-08-2010 07:00:00 19.26 C 10.69 g/m*3 19.26 C 0 km/h
657 26-08-2010 08:00:00 20.2 C 11.12 g/m*3 20.2 C 0 km/h
658 26-08-2010 09:00:00 21.52 C 11.33 g/m*3 21.52 C 0 km/h
659 26-08-2010 10:00:00 22.76 C 11.19 g/m*3 22.76 C 0 km/h
660 26-08-2010 11:00:00 23.76 C 11.16 g/m*3 23.76 C 0 km/h
661 26-08-2010 12:00:00 23.54 C 11.15 g/m*3 23.54 C 0 km/h
662 26-08-2010 13:00:00 22.96 C 11.2 g/m*3 22.96 C 0 km/h
663 26-08-2010 14:00:00 23.8 C 11.19 g/m*3 23.8 C 0 km/h
664 26-08-2010 15:00:00 23.68 C 11.32 g/m*3 23.68 C 0 km/h
665 26-08-2010 16:00:00 23.94 C 11.28 g/m*3 23.94 C 0 km/h
666 26-08-2010 17:00:00 23.62 C 11.29 g/m*3 23.62 C 0 km/h
667 26-08-2010 18:00:00 23.18 C 11.67 g/m*3 23.18 C 0 km/h
668 26-08-2010 19:00:00 21.66 C 13.36 g/m*3 21.66 C 0 km/h
669 26-08-2010 20:00:00 20.94 C 14.49 g/m*3 20.94 C 0 km/h
670 26-08-2010 21:00:00 20.42 C 14.03 g/m*3 20.42 C 0 km/h
671 26-08-2010 22:00:00 19.76 C 14.62 g/m*3 19.76 C 0 km/h
672 26-08-2010 23:00:00 19.44 C 14.95 g/m*3 19.44 C 0 km/h
673 27-08-2010 00:00:00 18.98 C 14.91 g/m*3 18.98 C 0 km/h
674 27-08-2010 01:00:00 18.76 C 14.97 g/m*3 18.76 C 0 km/h
675 27-08-2010 02:00:00 18.62 C 14.98 g/m*3 18.62 C 0 km/h
Sensor: Nr:Datum:Temp:Abs-Feuchte:Windchill:Wind:
Aussen-T/F 676 27-08-2010 03:00:00 18.38 C 14.77 g/m*3 18.38 C 0 km/h
677 27-08-2010 04:00:00 18.34 C 14.73 g/m*3 18.34 C 0 km/h
678 27-08-2010 05:00:00 18.4 C 14.88 g/m*3 18.4 C 0 km/h
679 27-08-2010 06:00:00 18.82 C 15.32 g/m*3 18.82 C 0 km/h
680 27-08-2010 07:00:00 18.68 C 15.03 g/m*3 18.68 C 0 km/h
681 27-08-2010 08:00:00 18.58 C 14.94 g/m*3 18.58 C 0 km/h
682 27-08-2010 09:00:00 19.26 C 15.06 g/m*3 19.26 C 0 km/h
683 27-08-2010 10:00:00 19.32 C 14.35 g/m*3 19.32 C 0 km/h
684 27-08-2010 11:00:00 18.16 C 13.58 g/m*3 18.16 C 0 km/h
685 27-08-2010 12:00:00 20.1 C 13.52 g/m*3 20.1 C 0 km/h
686 27-08-2010 13:00:00 22.92 C 12.6 g/m*3 22.92 C 0 km/h
687 27-08-2010 14:00:00 20.76 C 12.07 g/m*3 20.76 C 0 km/h
688 27-08-2010 15:00:00 18.92 C 13.49 g/m*3 18.92 C 0 km/h
689 27-08-2010 16:00:00 21.9 C 12.89 g/m*3 21.9 C 0 km/h
690 27-08-2010 17:00:00 21.3 C 11.71 g/m*3 21.3 C 0 km/h
691 27-08-2010 18:00:00 16.8 C 12.01 g/m*3 16.8 C 0 km/h
692 27-08-2010 19:00:00 15.64 C 10.93 g/m*3 15.64 C 0 km/h
693 27-08-2010 20:00:00 15.12 C 10.44 g/m*3 15.12 C 0 km/h
694 27-08-2010 21:00:00 14.58 C 10.17 g/m*3 14.58 C 0 km/h
695 27-08-2010 22:00:00 14.74 C 10.02 g/m*3 14.74 C 0 km/h
696 27-08-2010 23:00:00 13.96 C 9.34 g/m*3 13.96 C 0 km/h
697 28-08-2010 00:00:00 13.78 C 9.21 g/m*3 13.78 C 0 km/h
698 28-08-2010 01:00:00 13.1 C 9.88 g/m*3 13.1 C 0 km/h
699 28-08-2010 02:00:00 13.14 C 9.82 g/m*3 13.14 C 0 km/h
700 28-08-2010 03:00:00 13.1 C 9.56 g/m*3 13.1 C 0 km/h
Sensor: Nr:Datum:Temp:Abs-Feuchte:Windchill:Wind:
Aussen-T/F 701 28-08-2010 04:00:00 12.54 C 9.3 g/m*3 12.54 C 0 km/h
702 28-08-2010 05:00:00 12.12 C 9.15 g/m*3 12.12 C 0 km/h
703 28-08-2010 06:00:00 11.58 C 8.76 g/m*3 11.58 C 0 km/h
704 28-08-2010 07:00:00 11.72 C 8.88 g/m*3 11.72 C 0 km/h
705 28-08-2010 08:00:00 13.08 C 8.94 g/m*3 13.08 C 0 km/h
706 28-08-2010 09:00:00 14.22 C 8.58 g/m*3 14.22 C 0 km/h
707 28-08-2010 10:00:00 15.14 C 8.35 g/m*3 15.14 C 0 km/h
708 28-08-2010 11:00:00 16.44 C 7.81 g/m*3 16.44 C 0 km/h
709 28-08-2010 12:00:00 15.42 C 8.71 g/m*3 15.42 C 0 km/h
710 28-08-2010 13:00:00 16.24 C 10.62 g/m*3 16.24 C 0 km/h
711 28-08-2010 14:00:00 15.6 C 7.69 g/m*3 15.6 C 0 km/h
712 28-08-2010 15:00:00 16.72 C 7.46 g/m*3 16.72 C 0 km/h
713 28-08-2010 16:00:00 15.1 C 8.08 g/m*3 15.1 C 0 km/h
714 28-08-2010 17:00:00 15.6 C 8.67 g/m*3 15.6 C 0 km/h
715 28-08-2010 18:00:00 17.56 C 7.42 g/m*3 17.56 C 0 km/h
716 28-08-2010 19:00:00 15.26 C 8.34 g/m*3 15.26 C 0 km/h
717 28-08-2010 20:00:00 13.1 C 9.04 g/m*3 13.1 C 0 km/h
718 28-08-2010 21:00:00 12.46 C 9.12 g/m*3 12.46 C 0 km/h
719 28-08-2010 22:00:00 12.24 C 8.96 g/m*3 12.24 C 0 km/h
720 28-08-2010 23:00:00 12.36 C 8.72 g/m*3 12.36 C 0 km/h
721 29-08-2010 00:00:00 11.9 C 8.47 g/m*3 11.9 C 0 km/h
722 29-08-2010 01:00:00 11.5 C 8.45 g/m*3 11.5 C 0 km/h
723 29-08-2010 02:00:00 11.74 C 8.54 g/m*3 11.74 C 0 km/h
724 29-08-2010 03:00:00 11.76 C 8.48 g/m*3 11.76 C 0 km/h
725 29-08-2010 04:00:00 11.5 C 8.39 g/m*3 11.5 C 0 km/h
Sensor: Nr:Datum:Temp:Abs-Feuchte:Windchill:Wind:
Aussen-T/F 726 29-08-2010 05:00:00 11.74 C 8.33 g/m*3 11.74 C 0 km/h
727 29-08-2010 06:00:00 12.1 C 8.3 g/m*3 12.1 C 0 km/h
728 29-08-2010 07:00:00 12.2 C 8.33 g/m*3 12.2 C 0 km/h
729 29-08-2010 08:00:00 12.44 C 8.35 g/m*3 12.44 C 0 km/h
730 29-08-2010 09:00:00 14 C 8.18 g/m*3 14 C 0 km/h
731 29-08-2010 10:00:00 15.4 C 8.04 g/m*3 15.4 C 0 km/h
732 29-08-2010 11:00:00 16.26 C 7.92 g/m*3 16.26 C 0 km/h
733 29-08-2010 12:00:00 15.12 C 9.04 g/m*3 15.12 C 0 km/h
734 29-08-2010 13:00:00 16.04 C 8.71 g/m*3 16.04 C 0 km/h
735 29-08-2010 14:00:00 16.46 C 8.4 g/m*3 16.46 C 0 km/h
736 29-08-2010 15:00:00 15.08 C 8.92 g/m*3 15.08 C 0 km/h
737 29-08-2010 16:00:00 15.76 C 8.51 g/m*3 15.76 C 0 km/h
738 29-08-2010 17:00:00 14.96 C 8.31 g/m*3 14.96 C 0 km/h
739 29-08-2010 18:00:00 13.06 C 9.31 g/m*3 13.06 C 0 km/h
740 29-08-2010 19:00:00 12 C 9.29 g/m*3 12 C 0 km/h
741 29-08-2010 20:00:00 11.78 C 8.96 g/m*3 11.78 C 0 km/h
742 29-08-2010 21:00:00 11.64 C 8.71 g/m*3 11.64 C 0 km/h
743 29-08-2010 22:00:00 9.2 C 8.02 g/m*3 9.2 C 0 km/h
744 29-08-2010 23:00:00 9.12 C 8.16 g/m*3 9.12 C 0 km/h

Maximal/Minimal-Werte vom 30.07.2010 - 29.08.2010

Sensor Min Max Avg
Temp
(Aussen-T/F)
9 °C
29-08-2010  23:09:03
32.8 °C
21-08-2010  17:36:02
19.21 °C
Abs-Feuchte
(Aussen-T/F)
4.56 g/m*3
06-08-2010  14:00:00
15.61 g/m*3
23-08-2010  12:00:00
9.76 g/m*3
Windchill
(Aussen-T/F)
9.12 C
29-08-2010  23:00:00
32.42 C
21-08-2010  18:00:00
19.18 C

Die Daten stammen von einer Davis Vantage Pro 2 Wetter-Station und werden unter Linux mit der Software wview2wettercgi und aufbereitet. Alle Angaben erfolgen ohne Gewähr für ihre Vollständigkeit oder Richtigkeit.
Kontakt: Rainer Krienke krienke@uni-koblenz.de . Meine Webseiten an der Uni Koblenz oder privat.
Version: $Revision: 0.78 $